createdAt,value
2023-02-18T00:01:24.082Z,3.05
2023-02-18T00:03:53.110Z,3.12
2023-02-18T00:06:34.662Z,3.62
2023-02-18T00:09:04.287Z,2.67
2023-02-18T00:11:35.049Z,3.08
2023-02-18T00:14:04.433Z,3.40
2023-02-18T00:16:32.930Z,2.62
2023-02-18T00:19:05.092Z,4.45
2023-02-18T00:21:35.669Z,3.37
2023-02-18T00:24:03.700Z,4.18
2023-02-18T00:26:31.567Z,3.58
2023-02-18T00:28:59.487Z,3.67
2023-02-18T00:31:32.866Z,3.53
2023-02-18T00:34:01.517Z,3.37
2023-02-18T00:36:30.048Z,3.08
2023-02-18T00:39:04.720Z,3.83
2023-02-18T00:41:32.850Z,4.20
2023-02-18T00:44:00.814Z,4.00
2023-02-18T00:46:29.782Z,2.75
2023-02-18T00:48:58.012Z,4.80
2023-02-18T00:51:26.713Z,3.95
2023-02-18T00:53:55.049Z,2.92
2023-02-18T00:56:22.819Z,2.75
2023-02-18T00:58:51.505Z,2.42
2023-02-18T01:01:20.200Z,2.15
2023-02-18T01:03:47.993Z,2.08
2023-02-18T01:06:15.969Z,2.33
2023-02-18T01:08:44.315Z,3.03
2023-02-18T01:11:13.130Z,2.40
2023-02-18T01:13:41.716Z,2.17
2023-02-18T01:16:10.708Z,2.50
2023-02-18T01:18:39.758Z,2.70
2023-02-18T01:21:09.766Z,2.67
2023-02-18T01:23:41.399Z,2.85
2023-02-18T01:26:10.414Z,2.97
2023-02-18T01:28:38.530Z,2.70
2023-02-18T01:31:13.730Z,2.47
2023-02-18T01:33:42.168Z,2.92
2023-02-18T01:36:11.209Z,3.30
2023-02-18T01:38:39.459Z,2.62
2023-02-18T01:41:07.652Z,2.80
2023-02-18T01:43:36.167Z,2.37
2023-02-18T01:46:16.984Z,3.12
2023-02-18T01:48:47.322Z,3.50
2023-02-18T01:51:26.736Z,2.60
2023-02-18T01:54:07.654Z,3.72
2023-02-18T01:56:51.069Z,2.20
2023-02-18T01:59:25.239Z,2.97
2023-02-18T02:01:54.145Z,2.37
2023-02-18T02:04:23.032Z,4.18
2023-02-18T02:06:50.842Z,4.18
2023-02-18T02:09:21.508Z,3.25
2023-02-18T02:11:58.083Z,3.28
2023-02-18T02:14:53.836Z,2.55
2023-02-18T02:17:59.158Z,3.05
2023-02-18T02:20:47.090Z,3.72
2023-02-18T02:23:20.565Z,3.22
2023-02-18T02:26:24.798Z,3.15
2023-02-18T02:29:11.116Z,3.45
2023-02-18T02:32:04.361Z,3.08
2023-02-18T02:34:59.328Z,4.45
2023-02-18T02:38:00.972Z,3.00
2023-02-18T02:40:50.040Z,3.35
2023-02-18T02:43:29.054Z,2.90
2023-02-18T02:46:10.589Z,3.53
2023-02-18T02:48:47.898Z,3.00
2023-02-18T02:51:29.162Z,2.92
2023-02-18T02:54:09.335Z,3.03
2023-02-18T02:56:37.099Z,2.53
2023-02-18T02:59:09.087Z,2.62
2023-02-18T03:02:19.667Z,2.47
2023-02-18T03:05:41.302Z,2.33
2023-02-18T03:08:33.103Z,2.75
2023-02-18T03:11:08.566Z,3.00
2023-02-18T03:13:38.926Z,2.90
2023-02-18T03:16:30.901Z,3.05
2023-02-18T03:19:03.352Z,2.87
2023-02-18T03:21:36.568Z,2.33
2023-02-18T03:24:14.703Z,2.10
2023-02-18T03:26:48.239Z,2.20
2023-02-18T03:29:18.455Z,2.67
2023-02-18T03:31:50.448Z,3.58
2023-02-18T03:34:25.158Z,1.98
2023-02-18T03:36:54.581Z,3.40
2023-02-18T03:39:26.480Z,1.92
2023-02-18T03:41:54.774Z,2.92
2023-02-18T03:44:22.833Z,3.53
2023-02-18T03:46:50.570Z,2.28
2023-02-18T03:49:18.282Z,3.12
2023-02-18T03:51:46.195Z,1.70
2023-02-18T03:54:15.688Z,2.00
2023-02-18T03:56:43.760Z,1.87
2023-02-18T03:59:13.070Z,2.78
2023-02-18T04:01:41.514Z,3.47
2023-02-18T04:04:09.327Z,2.53
2023-02-18T04:06:37.287Z,2.10
2023-02-18T04:09:09.856Z,2.65
2023-02-18T04:11:39.748Z,1.87
2023-02-18T04:14:08.408Z,2.12
2023-02-18T04:16:36.296Z,2.17
2023-02-18T04:19:04.093Z,2.12
2023-02-18T04:21:31.859Z,2.00
2023-02-18T04:23:59.557Z,2.58
2023-02-18T04:26:27.319Z,2.17
2023-02-18T04:28:54.947Z,3.60
2023-02-18T04:31:22.791Z,2.62
2023-02-18T04:33:50.548Z,2.33
2023-02-18T04:36:18.207Z,3.05
2023-02-18T04:38:45.892Z,2.00
2023-02-18T04:41:14.063Z,4.25
2023-02-18T04:43:41.684Z,2.28
2023-02-18T04:46:09.667Z,3.80
2023-02-18T04:48:37.592Z,2.78
2023-02-18T04:51:05.816Z,4.43
2023-02-18T04:53:33.527Z,1.70
2023-02-18T04:56:01.659Z,2.30
2023-02-18T04:58:29.380Z,2.20
2023-02-18T05:01:01.818Z,2.42
2023-02-18T05:03:31.278Z,2.35
2023-02-18T05:05:59.834Z,2.17
2023-02-18T05:08:27.655Z,2.17
2023-02-18T05:10:55.406Z,3.20
2023-02-18T05:13:23.999Z,2.60
2023-02-18T05:15:52.052Z,2.50
2023-02-18T05:18:19.769Z,3.53
2023-02-18T05:20:47.435Z,2.72
2023-02-18T05:23:15.845Z,2.25
2023-02-18T05:25:43.494Z,2.12
2023-02-18T05:28:11.148Z,3.17
2023-02-18T05:30:39.047Z,4.20
2023-02-18T05:33:06.757Z,2.50
2023-02-18T05:35:34.624Z,2.72
2023-02-18T05:38:02.381Z,2.25
2023-02-18T05:40:30.188Z,2.97
2023-02-18T05:42:57.873Z,2.58
2023-02-18T05:45:25.588Z,4.28
2023-02-18T05:47:53.305Z,2.95
2023-02-18T05:50:21.171Z,2.30
2023-02-18T05:52:48.912Z,2.62
2023-02-18T05:55:16.670Z,3.70
2023-02-18T05:57:44.352Z,3.10
2023-02-18T06:00:12.738Z,3.08
2023-02-18T06:02:40.732Z,3.60
2023-02-18T06:05:08.818Z,4.18
2023-02-18T06:07:36.764Z,2.80
2023-02-18T06:10:05.728Z,2.50
2023-02-18T06:12:33.599Z,3.65
2023-02-18T06:15:01.261Z,3.30
2023-02-18T06:17:28.925Z,3.20
2023-02-18T06:19:56.643Z,2.55
2023-02-18T06:22:24.284Z,3.40
2023-02-18T06:24:51.980Z,5.10
2023-02-18T06:27:19.689Z,2.20
2023-02-18T06:29:47.317Z,3.92
2023-02-18T06:32:15.075Z,2.55
2023-02-18T06:34:42.917Z,2.50
2023-02-18T06:37:10.606Z,2.40
2023-02-18T06:39:39.828Z,2.70
2023-02-18T06:42:07.407Z,3.42
2023-02-18T06:44:37.500Z,2.37
2023-02-18T06:47:05.567Z,2.33
2023-02-18T06:49:33.274Z,2.28
2023-02-18T06:52:00.848Z,3.17
2023-02-18T06:54:28.529Z,2.03
2023-02-18T06:56:56.314Z,2.00
2023-02-18T06:59:24.070Z,2.95
2023-02-18T07:01:51.700Z,3.25
2023-02-18T07:04:19.434Z,2.15
2023-02-18T07:06:47.057Z,3.72
2023-02-18T07:09:14.752Z,3.05
2023-02-18T07:11:42.592Z,2.47
2023-02-18T07:14:10.326Z,2.30
2023-02-18T07:16:38.039Z,2.87
2023-02-18T07:19:05.772Z,2.15
2023-02-18T07:21:33.532Z,2.53
2023-02-18T07:24:01.235Z,2.67
2023-02-18T07:26:29.022Z,2.30
2023-02-18T07:28:56.792Z,2.55
2023-02-18T07:31:24.628Z,3.75
2023-02-18T07:33:52.409Z,2.42
2023-02-18T07:36:20.080Z,4.00
2023-02-18T07:38:47.931Z,3.12
2023-02-18T07:41:22.102Z,2.05
2023-02-18T07:43:50.463Z,3.20
2023-02-18T07:46:18.488Z,2.45
2023-02-18T07:48:46.292Z,3.17
2023-02-18T07:51:14.582Z,2.92
2023-02-18T07:53:42.916Z,2.33
2023-02-18T07:56:10.978Z,2.75
2023-02-18T07:58:40.146Z,2.45
2023-02-18T08:01:15.767Z,2.25
2023-02-18T08:03:44.144Z,2.10
2023-02-18T08:06:23.305Z,3.50
2023-02-18T08:08:51.099Z,2.47
2023-02-18T08:11:19.803Z,2.28
2023-02-18T08:13:49.272Z,1.85
2023-02-18T08:16:19.004Z,2.70
2023-02-18T08:18:48.958Z,1.87
2023-02-18T08:21:18.496Z,2.45
2023-02-18T08:23:46.321Z,2.25
2023-02-18T08:26:14.905Z,1.98
2023-02-18T08:28:42.990Z,2.62
2023-02-18T08:31:18.173Z,3.83
2023-02-18T08:33:45.898Z,2.58
2023-02-18T08:36:13.678Z,1.65
2023-02-18T08:38:41.397Z,1.90
2023-02-18T08:41:10.724Z,1.60
2023-02-18T08:43:38.986Z,2.17
2023-02-18T08:46:06.927Z,2.25
2023-02-18T08:48:34.770Z,2.62
2023-02-18T08:51:12.849Z,1.65
2023-02-18T08:53:41.152Z,1.95
2023-02-18T08:56:11.895Z,1.98
2023-02-18T08:58:39.924Z,2.47
2023-02-18T09:01:10.338Z,2.22
2023-02-18T09:03:39.068Z,2.50
2023-02-18T09:06:07.377Z,1.40
2023-02-18T09:08:35.116Z,1.77
2023-02-18T09:11:09.225Z,3.58
2023-02-18T09:13:37.093Z,1.50
2023-02-18T09:16:11.829Z,3.22
2023-02-18T09:18:39.902Z,1.80
2023-02-18T09:21:10.769Z,1.77
2023-02-18T09:23:38.817Z,2.08
2023-02-18T09:26:08.548Z,3.60
2023-02-18T09:28:37.691Z,2.15
2023-02-18T09:31:14.240Z,2.83
2023-02-18T09:33:45.921Z,3.25
2023-02-18T09:36:14.459Z,1.48
2023-02-18T09:38:42.223Z,1.60
2023-02-18T09:41:31.384Z,1.30
2023-02-18T09:44:05.132Z,1.08
2023-02-18T09:46:39.972Z,1.35
2023-02-18T09:49:29.707Z,1.60
2023-02-18T09:52:03.669Z,1.40
2023-02-18T09:54:31.322Z,3.33
2023-02-18T09:57:00.955Z,3.20
2023-02-18T09:59:29.544Z,2.60
2023-02-18T10:01:58.223Z,2.08
2023-02-18T10:04:33.253Z,1.10
2023-02-18T10:07:04.781Z,2.15
2023-02-18T10:09:42.094Z,2.05
2023-02-18T10:12:20.048Z,1.20
2023-02-18T10:14:55.924Z,2.47
2023-02-18T10:17:31.033Z,1.42
2023-02-18T10:20:01.444Z,1.00
2023-02-18T10:22:31.345Z,1.25
2023-02-18T10:25:01.974Z,1.73
2023-02-18T10:27:36.437Z,2.28
2023-02-18T10:30:20.146Z,1.08
2023-02-18T10:32:49.749Z,1.48
2023-02-18T10:35:32.317Z,1.23
2023-02-18T10:38:14.441Z,1.08
2023-02-18T10:41:09.613Z,1.77
2023-02-18T10:44:01.609Z,1.23
2023-02-18T10:46:54.245Z,1.77
2023-02-18T10:49:56.054Z,0.90
2023-02-18T10:52:24.649Z,1.42
2023-02-18T10:55:08.227Z,1.55
2023-02-18T10:57:36.542Z,1.15
2023-02-18T11:00:28.965Z,1.42
2023-02-18T11:03:20.204Z,1.12
2023-02-18T11:05:50.346Z,1.23
2023-02-18T11:08:30.457Z,1.30
2023-02-18T11:10:59.313Z,4.12
2023-02-18T11:13:33.979Z,2.05
2023-02-18T11:16:13.220Z,1.08
2023-02-18T11:18:43.978Z,1.50
2023-02-18T11:21:46.830Z,1.58
2023-02-18T11:24:17.823Z,1.45
2023-02-18T11:26:45.941Z,1.20
2023-02-18T11:29:22.076Z,1.40
2023-02-18T11:31:53.906Z,1.73
2023-02-18T11:34:24.704Z,2.33
2023-02-18T11:36:53.769Z,2.00
2023-02-18T11:39:30.131Z,2.95
2023-02-18T11:42:01.730Z,2.80
2023-02-18T11:44:39.600Z,1.40
2023-02-18T11:47:16.243Z,2.20
2023-02-18T11:49:46.106Z,1.02
2023-02-18T11:52:28.618Z,1.37
2023-02-18T11:55:07.454Z,1.55
2023-02-18T11:57:38.353Z,0.90
2023-02-18T12:00:23.171Z,1.12
2023-02-18T12:02:52.046Z,1.30
2023-02-18T12:05:26.018Z,1.25
2023-02-18T12:08:00.892Z,1.12
2023-02-18T12:10:34.224Z,1.12
2023-02-18T12:13:12.219Z,0.90
2023-02-18T12:16:14.510Z,0.93
2023-02-18T12:19:22.294Z,1.08
2023-02-18T12:22:23.338Z,2.47
2023-02-18T12:25:14.970Z,2.47
2023-02-18T12:28:15.835Z,1.23
2023-02-18T12:31:17.410Z,1.20
2023-02-18T12:33:48.014Z,1.87
2023-02-18T12:36:39.631Z,2.97
2023-02-18T12:39:47.629Z,2.12
2023-02-18T12:42:33.940Z,1.37
2023-02-18T12:45:36.237Z,1.10
2023-02-18T12:48:37.468Z,1.95
2023-02-18T12:51:16.961Z,1.50
2023-02-18T12:54:23.492Z,1.50
2023-02-18T12:57:17.135Z,1.80
2023-02-18T13:00:17.111Z,3.37
2023-02-18T13:03:15.254Z,0.90
2023-02-18T13:05:51.645Z,1.25
2023-02-18T13:08:34.469Z,1.02
2023-02-18T13:11:05.605Z,3.37
2023-02-18T13:13:42.252Z,1.55
2023-02-18T13:16:21.052Z,1.30
2023-02-18T13:18:57.274Z,1.62
2023-02-18T13:21:25.475Z,1.35
2023-02-18T13:23:59.665Z,0.90
2023-02-18T13:26:30.217Z,1.10
2023-02-18T13:29:31.083Z,1.65
2023-02-18T13:32:27.164Z,1.50
2023-02-18T13:35:08.294Z,1.15
2023-02-18T13:37:54.017Z,1.67
2023-02-18T13:40:26.725Z,1.42
2023-02-18T13:42:55.241Z,1.20
2023-02-18T13:45:29.156Z,1.60
2023-02-18T13:47:58.072Z,1.30
2023-02-18T13:50:28.962Z,1.85
2023-02-18T13:53:08.615Z,1.05
2023-02-18T13:55:39.308Z,1.33
2023-02-18T13:58:25.700Z,1.27
2023-02-18T14:01:25.139Z,0.60
2023-02-18T14:03:59.135Z,0.75
2023-02-18T14:06:38.715Z,1.20
2023-02-18T14:09:27.022Z,0.70
2023-02-18T14:12:17.354Z,2.15
2023-02-18T14:14:45.514Z,1.33
2023-02-18T14:17:31.607Z,0.80
2023-02-18T14:20:02.321Z,0.80
2023-02-18T14:22:32.663Z,0.80
2023-02-18T14:25:23.890Z,0.88
2023-02-18T14:27:54.070Z,1.15
2023-02-18T14:30:24.676Z,1.62
2023-02-18T14:32:57.502Z,1.55
2023-02-18T14:35:52.966Z,1.90
2023-02-18T14:38:45.135Z,1.23
2023-02-18T14:41:55.686Z,1.87
2023-02-18T14:44:45.068Z,1.40
2023-02-18T14:47:24.936Z,1.55
2023-02-18T14:50:00.867Z,1.20
2023-02-18T14:52:41.707Z,1.30
2023-02-18T14:55:37.457Z,1.55
2023-02-18T14:58:12.227Z,2.42
2023-02-18T15:00:44.383Z,1.20
2023-02-18T15:03:18.950Z,1.60
2023-02-18T15:05:47.522Z,0.90
2023-02-18T15:08:24.122Z,2.70
2023-02-18T15:10:59.933Z,0.70
2023-02-18T15:13:47.453Z,0.70
2023-02-18T15:16:24.796Z,0.70
2023-02-18T15:18:59.973Z,0.88
2023-02-18T15:21:36.548Z,0.90
2023-02-18T15:24:38.068Z,0.70
2023-02-18T15:27:13.846Z,0.90
2023-02-18T15:29:41.787Z,0.82
2023-02-18T15:32:23.675Z,0.70
2023-02-18T15:34:54.308Z,1.27
2023-02-18T15:37:22.019Z,0.70
2023-02-18T15:39:49.875Z,0.70
2023-02-18T15:42:33.157Z,0.62
2023-02-18T15:45:20.987Z,1.12
2023-02-18T15:47:52.628Z,1.23
2023-02-18T15:50:37.534Z,0.82
2023-02-18T15:53:14.788Z,1.15
2023-02-18T15:55:44.947Z,1.58
2023-02-18T15:58:18.062Z,0.90
2023-02-18T16:00:55.228Z,0.80
2023-02-18T16:03:31.727Z,1.12
2023-02-18T16:06:22.852Z,0.60
2023-02-18T16:09:31.629Z,1.12
2023-02-18T16:12:03.221Z,0.82
2023-02-18T16:14:33.438Z,2.50
2023-02-18T16:17:16.594Z,1.40
2023-02-18T16:20:04.382Z,1.27
2023-02-18T16:22:32.725Z,1.23
2023-02-18T16:25:22.067Z,3.37
2023-02-18T16:27:58.826Z,0.98
2023-02-18T16:30:30.203Z,0.80
2023-02-18T16:32:59.090Z,1.27
2023-02-18T16:35:44.005Z,1.00
2023-02-18T16:38:23.918Z,0.82
2023-02-18T16:40:53.275Z,1.52
2023-02-18T16:43:29.952Z,1.15
2023-02-18T16:46:00.031Z,1.50
2023-02-18T16:48:29.379Z,2.05
2023-02-18T16:50:57.551Z,0.88
2023-02-18T16:53:25.432Z,1.08
2023-02-18T16:55:53.180Z,1.70
2023-02-18T16:58:20.907Z,1.00
2023-02-18T17:00:51.114Z,1.10
2023-02-18T17:03:19.568Z,2.03
2023-02-18T17:05:47.782Z,1.17
2023-02-18T17:08:17.460Z,1.33
2023-02-18T17:10:45.732Z,1.08
2023-02-18T17:13:22.382Z,1.15
2023-02-18T17:15:53.024Z,1.00
2023-02-18T17:18:21.314Z,1.23
2023-02-18T17:20:50.092Z,1.15
2023-02-18T17:23:20.100Z,1.40
2023-02-18T17:25:51.848Z,1.83
2023-02-18T17:28:20.479Z,1.37
2023-02-18T17:30:53.706Z,2.10
2023-02-18T17:33:21.467Z,2.30
2023-02-18T17:35:49.413Z,1.37
2023-02-18T17:38:19.637Z,1.85
2023-02-18T17:40:47.479Z,2.03
2023-02-18T17:43:16.769Z,2.53
2023-02-18T17:45:53.917Z,1.75
2023-02-18T17:48:21.918Z,3.00
2023-02-18T17:50:49.646Z,2.47
2023-02-18T17:53:18.681Z,2.87
2023-02-18T17:55:48.208Z,3.20
2023-02-18T17:58:17.262Z,3.00
2023-02-18T18:00:51.827Z,3.17
2023-02-18T18:03:20.514Z,3.58
2023-02-18T18:05:50.919Z,2.72
2023-02-18T18:08:19.196Z,2.83
2023-02-18T18:10:50.998Z,3.05
2023-02-18T18:13:27.279Z,2.47
2023-02-18T18:15:57.643Z,2.70
2023-02-18T18:18:26.743Z,2.30
2023-02-18T18:21:02.360Z,1.75
2023-02-18T18:23:30.438Z,2.62
2023-02-18T18:25:59.769Z,3.65
2023-02-18T18:28:28.275Z,3.85
2023-02-18T18:30:57.773Z,2.60
2023-02-18T18:33:31.604Z,4.80
2023-02-18T18:36:00.517Z,6.28
2023-02-18T18:38:30.619Z,5.00
2023-02-18T18:40:58.372Z,5.80
2023-02-18T18:43:33.165Z,4.30
2023-02-18T18:46:01.552Z,5.20
2023-02-18T18:48:29.548Z,3.90
2023-02-18T18:50:59.943Z,3.05
2023-02-18T18:53:35.671Z,3.53
2023-02-18T18:56:09.452Z,4.32
2023-02-18T18:58:37.179Z,3.33
2023-02-18T19:01:08.293Z,2.35
2023-02-18T19:03:38.784Z,3.20
2023-02-18T19:06:06.893Z,2.40
2023-02-18T19:08:35.414Z,2.25
2023-02-18T19:11:03.511Z,1.83
2023-02-18T19:13:33.243Z,1.65
2023-02-18T19:16:16.141Z,2.20
2023-02-18T19:18:43.888Z,2.25
2023-02-18T19:21:13.283Z,2.40
2023-02-18T19:23:41.487Z,2.10
2023-02-18T19:26:09.894Z,1.62
2023-02-18T19:28:37.811Z,1.40
2023-02-18T19:31:11.052Z,1.58
2023-02-18T19:33:40.243Z,2.78
2023-02-18T19:36:12.728Z,1.90
2023-02-18T19:38:40.636Z,1.42
2023-02-18T19:41:13.924Z,1.90
2023-02-18T19:43:43.869Z,1.52
2023-02-18T19:46:14.479Z,2.12
2023-02-18T19:48:43.132Z,1.50
2023-02-18T19:51:11.394Z,1.62
2023-02-18T19:53:39.308Z,1.98
2023-02-18T19:56:08.547Z,1.77
2023-02-18T19:58:37.267Z,4.32
2023-02-18T20:01:05.439Z,2.87
2023-02-18T20:03:33.129Z,1.62
2023-02-18T20:06:00.924Z,1.55
2023-02-18T20:08:28.643Z,1.70
2023-02-18T20:11:00.282Z,1.90
2023-02-18T20:13:28.385Z,1.60
2023-02-18T20:15:56.285Z,1.73
2023-02-18T20:18:24.195Z,2.28
2023-02-18T20:20:52.731Z,2.50
2023-02-18T20:23:20.479Z,1.60
2023-02-18T20:25:48.757Z,1.50
2023-02-18T20:28:16.842Z,1.80
2023-02-18T20:30:45.346Z,3.45
2023-02-18T20:33:15.434Z,1.95
2023-02-18T20:35:43.119Z,1.95
2023-02-18T20:38:11.041Z,2.17
2023-02-18T20:40:38.847Z,2.37
2023-02-18T20:43:06.595Z,2.67
2023-02-18T20:45:34.506Z,2.58
2023-02-18T20:48:02.196Z,2.15
2023-02-18T20:50:30.046Z,2.33
2023-02-18T20:52:57.653Z,2.28
2023-02-18T20:55:25.375Z,2.05
2023-02-18T20:57:53.199Z,1.85
2023-02-18T21:00:20.955Z,2.10
2023-02-18T21:02:48.740Z,1.70
2023-02-18T21:05:16.673Z,2.70
2023-02-18T21:07:44.418Z,2.90
2023-02-18T21:10:12.136Z,2.30
2023-02-18T21:12:39.857Z,3.60
2023-02-18T21:15:07.823Z,3.03
2023-02-18T21:17:35.496Z,3.58
2023-02-18T21:20:03.101Z,4.00
2023-02-18T21:22:30.875Z,1.90
2023-02-18T21:25:00.234Z,2.67
2023-02-18T21:27:27.956Z,2.03
2023-02-18T21:29:56.177Z,1.98
2023-02-18T21:32:24.051Z,2.42
2023-02-18T21:34:52.027Z,1.90
2023-02-18T21:37:19.738Z,2.15
2023-02-18T21:39:47.586Z,2.25
2023-02-18T21:42:15.266Z,2.22
2023-02-18T21:44:43.385Z,2.03
2023-02-18T21:47:11.811Z,2.05
2023-02-18T21:49:39.667Z,2.67
2023-02-18T21:52:10.565Z,2.03
2023-02-18T21:54:41.058Z,3.12
2023-02-18T21:57:14.749Z,1.70
2023-02-18T21:59:43.181Z,3.00
2023-02-18T22:02:17.938Z,4.85
2023-02-18T22:04:46.741Z,2.10
2023-02-18T22:07:14.559Z,1.90
2023-02-18T22:09:42.391Z,1.95
2023-02-18T22:12:10.894Z,1.98
2023-02-18T22:14:39.607Z,2.12
2023-02-18T22:17:07.714Z,2.12
2023-02-18T22:19:35.746Z,2.15
2023-02-18T22:22:03.999Z,2.22
2023-02-18T22:24:32.775Z,2.15
2023-02-18T22:27:03.855Z,2.42
2023-02-18T22:29:33.266Z,3.67
2023-02-18T22:32:01.468Z,2.10
2023-02-18T22:34:29.549Z,1.60
2023-02-18T22:36:57.281Z,3.12
2023-02-18T22:39:25.617Z,2.70
2023-02-18T22:41:53.314Z,2.58
2023-02-18T22:44:21.574Z,1.98
2023-02-18T22:46:49.303Z,2.17
2023-02-18T22:49:17.133Z,2.37
2023-02-18T22:51:45.544Z,2.08
2023-02-18T22:54:17.939Z,3.60
2023-02-18T22:56:47.623Z,2.67
2023-02-18T22:59:17.310Z,2.70
2023-02-18T23:01:50.698Z,2.67
2023-02-18T23:04:19.963Z,2.50
2023-02-18T23:06:48.266Z,2.70
2023-02-18T23:09:19.461Z,2.33
2023-02-18T23:11:50.413Z,1.73
2023-02-18T23:14:22.466Z,1.90
2023-02-18T23:17:19.898Z,2.10
2023-02-18T23:19:50.305Z,1.92
2023-02-18T23:22:20.484Z,2.00
2023-02-18T23:24:48.549Z,2.62
2023-02-18T23:27:17.203Z,2.37
2023-02-18T23:29:44.951Z,2.20
2023-02-18T23:32:12.756Z,2.78
2023-02-18T23:34:40.595Z,1.77
2023-02-18T23:37:08.464Z,1.70
2023-02-18T23:39:36.374Z,2.08
2023-02-18T23:42:04.411Z,1.65
2023-02-18T23:44:32.177Z,1.65
2023-02-18T23:47:01.310Z,2.35
2023-02-18T23:49:29.908Z,1.95
2023-02-18T23:51:58.673Z,2.15
2023-02-18T23:54:26.596Z,1.52
2023-02-18T23:56:54.309Z,1.73
2023-02-18T23:59:22.395Z,2.03
